sensor_id;sensor_type;location;lat;lon;timestamp;pressure;altitude;pressure_sealevel;temperature
71081;BMP180;58740;50.672;18.690;2023-02-28T00:01:41;100217.00;;;0.60
71081;BMP180;58740;50.672;18.690;2023-02-28T00:04:08;100222.40;;;0.60
71081;BMP180;58740;50.672;18.690;2023-02-28T00:06:36;100223.00;;;0.60
71081;BMP180;58740;50.672;18.690;2023-02-28T00:09:04;100212.60;;;0.70
71081;BMP180;58740;50.672;18.690;2023-02-28T00:11:32;100206.40;;;0.70
71081;BMP180;58740;50.672;18.690;2023-02-28T00:14:00;100214.20;;;0.70
71081;BMP180;58740;50.672;18.690;2023-02-28T00:16:28;100210.80;;;0.70
71081;BMP180;58740;50.672;18.690;2023-02-28T00:18:56;100212.00;;;0.70
71081;BMP180;58740;50.672;18.690;2023-02-28T00:21:23;100212.80;;;0.70
71081;BMP180;58740;50.672;18.690;2023-02-28T00:23:51;100213.60;;;0.70
71081;BMP180;58740;50.672;18.690;2023-02-28T00:26:19;100217.80;;;0.70
71081;BMP180;58740;50.672;18.690;2023-02-28T00:28:48;100218.20;;;0.70
71081;BMP180;58740;50.672;18.690;2023-02-28T00:31:16;100218.40;;;0.64
71081;BMP180;58740;50.672;18.690;2023-02-28T00:33:44;100225.20;;;0.60
71081;BMP180;58740;50.672;18.690;2023-02-28T00:36:11;100226.40;;;0.60
71081;BMP180;58740;50.672;18.690;2023-02-28T00:38:40;100221.60;;;0.60
71081;BMP180;58740;50.672;18.690;2023-02-28T00:41:09;100220.60;;;0.60
71081;BMP180;58740;50.672;18.690;2023-02-28T00:43:38;100219.20;;;0.60
71081;BMP180;58740;50.672;18.690;2023-02-28T00:46:07;100217.20;;;0.58
71081;BMP180;58740;50.672;18.690;2023-02-28T00:48:35;100211.20;;;0.50
71081;BMP180;58740;50.672;18.690;2023-02-28T00:51:04;100210.60;;;0.50
71081;BMP180;58740;50.672;18.690;2023-02-28T00:53:32;100211.80;;;0.46
71081;BMP180;58740;50.672;18.690;2023-02-28T00:56:00;100214.00;;;0.42
71081;BMP180;58740;50.672;18.690;2023-02-28T00:58:29;100212.80;;;0.40
71081;BMP180;58740;50.672;18.690;2023-02-28T01:00:57;100208.00;;;0.40
71081;BMP180;58740;50.672;18.690;2023-02-28T01:03:25;100202.00;;;0.38
71081;BMP180;58740;50.672;18.690;2023-02-28T01:05:52;100202.60;;;0.30
71081;BMP180;58740;50.672;18.690;2023-02-28T01:08:21;100201.80;;;0.30
71081;BMP180;58740;50.672;18.690;2023-02-28T01:10:49;100201.20;;;0.30
71081;BMP180;58740;50.672;18.690;2023-02-28T01:13:19;100201.20;;;0.20
71081;BMP180;58740;50.672;18.690;2023-02-28T01:15:55;100205.20;;;0.20
71081;BMP180;58740;50.672;18.690;2023-02-28T01:18:24;100204.60;;;0.20
71081;BMP180;58740;50.672;18.690;2023-02-28T01:20:52;100202.20;;;0.10
71081;BMP180;58740;50.672;18.690;2023-02-28T01:23:22;100203.20;;;0.10
71081;BMP180;58740;50.672;18.690;2023-02-28T01:25:51;100207.60;;;0.08
71081;BMP180;58740;50.672;18.690;2023-02-28T01:28:19;100206.20;;;0.00
71081;BMP180;58740;50.672;18.690;2023-02-28T01:30:49;100210.80;;;0.00
71081;BMP180;58740;50.672;18.690;2023-02-28T01:33:17;100202.60;;;-0.06
71081;BMP180;58740;50.672;18.690;2023-02-28T01:35:45;100214.20;;;-0.10
71081;BMP180;58740;50.672;18.690;2023-02-28T01:38:14;100211.60;;;-0.10
71081;BMP180;58740;50.672;18.690;2023-02-28T01:40:50;100205.20;;;-0.16
71081;BMP180;58740;50.672;18.690;2023-02-28T01:43:32;100208.20;;;-0.14
71081;BMP180;58740;50.672;18.690;2023-02-28T01:46:00;100209.00;;;-0.10
71081;BMP180;58740;50.672;18.690;2023-02-28T01:48:34;100206.60;;;-0.10
71081;BMP180;58740;50.672;18.690;2023-02-28T01:51:14;100204.60;;;-0.10
71081;BMP180;58740;50.672;18.690;2023-02-28T01:53:49;100206.20;;;-0.10
71081;BMP180;58740;50.672;18.690;2023-02-28T01:56:25;100206.40;;;-0.10
71081;BMP180;58740;50.672;18.690;2023-02-28T01:58:55;100211.40;;;-0.10
71081;BMP180;58740;50.672;18.690;2023-02-28T02:01:26;100215.80;;;-0.10
71081;BMP180;58740;50.672;18.690;2023-02-28T02:03:59;100210.80;;;-0.10
71081;BMP180;58740;50.672;18.690;2023-02-28T02:06:37;100210.60;;;-0.20
71081;BMP180;58740;50.672;18.690;2023-02-28T02:09:04;100215.80;;;-0.20
71081;BMP180;58740;50.672;18.690;2023-02-28T02:11:34;100212.80;;;-0.24
71081;BMP180;58740;50.672;18.690;2023-02-28T02:14:29;100218.00;;;-0.30
71081;BMP180;58740;50.672;18.690;2023-02-28T02:17:20;100210.40;;;-0.30
71081;BMP180;58740;50.672;18.690;2023-02-28T02:24:19;100206.80;;;-0.30
71081;BMP180;58740;50.672;18.690;2023-02-28T02:27:23;100204.00;;;-0.40
71081;BMP180;58740;50.672;18.690;2023-02-28T02:36:18;100208.20;;;-0.50
71081;BMP180;58740;50.672;18.690;2023-02-28T02:39:09;100200.20;;;-0.60
71081;BMP180;58740;50.672;18.690;2023-02-28T02:41:51;100195.60;;;-0.60
71081;BMP180;58740;50.672;18.690;2023-02-28T02:44:41;100201.00;;;-0.60
71081;BMP180;58740;50.672;18.690;2023-02-28T02:47:17;100200.80;;;-0.70
71081;BMP180;58740;50.672;18.690;2023-02-28T02:49:52;100199.60;;;-0.70
71081;BMP180;58740;50.672;18.690;2023-02-28T02:52:32;100201.80;;;-0.72
71081;BMP180;58740;50.672;18.690;2023-02-28T02:55:03;100197.60;;;-0.80
71081;BMP180;58740;50.672;18.690;2023-02-28T02:57:50;100197.80;;;-0.80
71081;BMP180;58740;50.672;18.690;2023-02-28T03:00:30;100198.60;;;-0.80
71081;BMP180;58740;50.672;18.690;2023-02-28T03:03:01;100204.00;;;-0.80
71081;BMP180;58740;50.672;18.690;2023-02-28T03:05:42;100203.00;;;-0.80
71081;BMP180;58740;50.672;18.690;2023-02-28T03:08:11;100205.60;;;-0.80
71081;BMP180;58740;50.672;18.690;2023-02-28T03:10:46;100212.00;;;-0.86
71081;BMP180;58740;50.672;18.690;2023-02-28T03:25:07;100210.00;;;-1.00
71081;BMP180;58740;50.672;18.690;2023-02-28T03:30:57;100214.80;;;-1.00
71081;BMP180;58740;50.672;18.690;2023-02-28T03:33:35;100210.80;;;-1.06
71081;BMP180;58740;50.672;18.690;2023-02-28T03:36:16;100208.20;;;-1.10
71081;BMP180;58740;50.672;18.690;2023-02-28T03:38:52;100205.60;;;-1.10
71081;BMP180;58740;50.672;18.690;2023-02-28T03:41:53;100206.00;;;-1.20
71081;BMP180;58740;50.672;18.690;2023-02-28T03:44:39;100213.60;;;-1.20
71081;BMP180;58740;50.672;18.690;2023-02-28T03:47:39;100210.40;;;-1.30
71081;BMP180;58740;50.672;18.690;2023-02-28T03:50:16;100217.60;;;-1.30
71081;BMP180;58740;50.672;18.690;2023-02-28T03:53:17;100213.20;;;-1.40
71081;BMP180;58740;50.672;18.690;2023-02-28T03:55:56;100213.60;;;-1.40
71081;BMP180;58740;50.672;18.690;2023-02-28T03:58:30;100216.80;;;-1.50
71081;BMP180;58740;50.672;18.690;2023-02-28T04:01:16;100212.20;;;-1.50
71081;BMP180;58740;50.672;18.690;2023-02-28T04:03:46;100217.40;;;-1.50
71081;BMP180;58740;50.672;18.690;2023-02-28T04:06:19;100217.00;;;-1.50
71081;BMP180;58740;50.672;18.690;2023-02-28T04:08:48;100225.20;;;-1.48
71081;BMP180;58740;50.672;18.690;2023-02-28T04:11:29;100220.00;;;-1.50
71081;BMP180;58740;50.672;18.690;2023-02-28T04:13:59;100219.00;;;-1.50
71081;BMP180;58740;50.672;18.690;2023-02-28T04:16:27;100225.40;;;-1.50
71081;BMP180;58740;50.672;18.690;2023-02-28T04:19:05;100227.60;;;-1.50
71081;BMP180;58740;50.672;18.690;2023-02-28T04:21:35;100224.20;;;-1.56
71081;BMP180;58740;50.672;18.690;2023-02-28T04:24:04;100227.00;;;-1.60
71081;BMP180;58740;50.672;18.690;2023-02-28T04:26:36;100229.40;;;-1.60
71081;BMP180;58740;50.672;18.690;2023-02-28T04:29:06;100231.40;;;-1.62
71081;BMP180;58740;50.672;18.690;2023-02-28T04:31:34;100229.80;;;-1.70
71081;BMP180;58740;50.672;18.690;2023-02-28T04:34:02;100231.80;;;-1.70
71081;BMP180;58740;50.672;18.690;2023-02-28T04:36:30;100233.80;;;-1.80
71081;BMP180;58740;50.672;18.690;2023-02-28T04:38:58;100236.60;;;-1.80
71081;BMP180;58740;50.672;18.690;2023-02-28T04:41:26;100231.00;;;-1.80
71081;BMP180;58740;50.672;18.690;2023-02-28T04:43:58;100240.20;;;-1.90
71081;BMP180;58740;50.672;18.690;2023-02-28T04:46:26;100242.80;;;-1.90
71081;BMP180;58740;50.672;18.690;2023-02-28T04:48:54;100236.60;;;-1.90
71081;BMP180;58740;50.672;18.690;2023-02-28T04:51:22;100246.00;;;-1.90
71081;BMP180;58740;50.672;18.690;2023-02-28T04:53:50;100248.60;;;-1.90
71081;BMP180;58740;50.672;18.690;2023-02-28T04:56:18;100248.40;;;-2.00
71081;BMP180;58740;50.672;18.690;2023-02-28T04:58:47;100244.80;;;-1.90
71081;BMP180;58740;50.672;18.690;2023-02-28T05:01:30;100257.60;;;-1.90
71081;BMP180;58740;50.672;18.690;2023-02-28T05:04:01;100247.80;;;-1.86
71081;BMP180;58740;50.672;18.690;2023-02-28T05:06:32;100259.20;;;-1.90
71081;BMP180;58740;50.672;18.690;2023-02-28T05:09:00;100258.20;;;-1.90
71081;BMP180;58740;50.672;18.690;2023-02-28T05:11:32;100259.20;;;-1.90
71081;BMP180;58740;50.672;18.690;2023-02-28T05:14:11;100257.60;;;-1.90
71081;BMP180;58740;50.672;18.690;2023-02-28T05:16:40;100269.80;;;-1.90
71081;BMP180;58740;50.672;18.690;2023-02-28T05:19:08;100265.20;;;-1.90
71081;BMP180;58740;50.672;18.690;2023-02-28T05:21:41;100274.20;;;-1.96
71081;BMP180;58740;50.672;18.690;2023-02-28T05:24:11;100272.40;;;-2.00
71081;BMP180;58740;50.672;18.690;2023-02-28T05:26:42;100268.20;;;-2.00
71081;BMP180;58740;50.672;18.690;2023-02-28T05:29:10;100270.60;;;-2.08
71081;BMP180;58740;50.672;18.690;2023-02-28T05:31:38;100276.20;;;-2.10
71081;BMP180;58740;50.672;18.690;2023-02-28T05:34:06;100273.60;;;-2.10
71081;BMP180;58740;50.672;18.690;2023-02-28T05:36:36;100277.20;;;-2.20
71081;BMP180;58740;50.672;18.690;2023-02-28T05:39:07;100280.00;;;-2.20
71081;BMP180;58740;50.672;18.690;2023-02-28T05:41:43;100287.40;;;-2.30
71081;BMP180;58740;50.672;18.690;2023-02-28T05:44:11;100282.20;;;-2.30
71081;BMP180;58740;50.672;18.690;2023-02-28T05:46:39;100288.40;;;-2.28
71081;BMP180;58740;50.672;18.690;2023-02-28T05:49:07;100281.80;;;-2.20
71081;BMP180;58740;50.672;18.690;2023-02-28T05:51:35;100281.40;;;-2.20
71081;BMP180;58740;50.672;18.690;2023-02-28T05:54:07;100283.00;;;-2.12
71081;BMP180;58740;50.672;18.690;2023-02-28T05:56:35;100288.40;;;-2.10
71081;BMP180;58740;50.672;18.690;2023-02-28T05:59:06;100286.60;;;-2.08
71081;BMP180;58740;50.672;18.690;2023-02-28T06:01:43;100290.20;;;-2.00
71081;BMP180;58740;50.672;18.690;2023-02-28T06:04:20;100296.80;;;-1.92
71081;BMP180;58740;50.672;18.690;2023-02-28T06:06:58;100296.20;;;-1.90
71081;BMP180;58740;50.672;18.690;2023-02-28T06:09:26;100305.20;;;-1.86
71081;BMP180;58740;50.672;18.690;2023-02-28T06:11:55;100305.60;;;-1.80
71081;BMP180;58740;50.672;18.690;2023-02-28T06:14:25;100314.20;;;-1.70
71081;BMP180;58740;50.672;18.690;2023-02-28T06:16:53;100310.20;;;-1.70
71081;BMP180;58740;50.672;18.690;2023-02-28T06:19:21;100323.80;;;-1.70
71081;BMP180;58740;50.672;18.690;2023-02-28T06:21:50;100318.00;;;-1.60
71081;BMP180;58740;50.672;18.690;2023-02-28T06:24:23;100318.80;;;-1.58
71081;BMP180;58740;50.672;18.690;2023-02-28T06:26:51;100325.00;;;-1.50
71081;BMP180;58740;50.672;18.690;2023-02-28T06:29:18;100329.20;;;-1.50
71081;BMP180;58740;50.672;18.690;2023-02-28T06:31:47;100323.80;;;-1.40
71081;BMP180;58740;50.672;18.690;2023-02-28T06:34:15;100329.00;;;-1.40
71081;BMP180;58740;50.672;18.690;2023-02-28T06:36:43;100335.40;;;-1.30
71081;BMP180;58740;50.672;18.690;2023-02-28T06:39:11;100339.00;;;-1.30
71081;BMP180;58740;50.672;18.690;2023-02-28T06:41:39;100333.40;;;-1.20
71081;BMP180;58740;50.672;18.690;2023-02-28T06:44:22;100337.60;;;-1.10
71081;BMP180;58740;50.672;18.690;2023-02-28T06:46:51;100335.80;;;-0.94
71081;BMP180;58740;50.672;18.690;2023-02-28T06:49:18;100330.40;;;-0.82
71081;BMP180;58740;50.672;18.690;2023-02-28T06:51:46;100327.80;;;-0.70
71081;BMP180;58740;50.672;18.690;2023-02-28T06:54:14;100334.20;;;-0.60
71081;BMP180;58740;50.672;18.690;2023-02-28T06:56:42;100334.60;;;-0.58
71081;BMP180;58740;50.672;18.690;2023-02-28T06:59:09;100332.20;;;-0.50
71081;BMP180;58740;50.672;18.690;2023-02-28T07:01:38;100334.00;;;-0.42
71081;BMP180;58740;50.672;18.690;2023-02-28T07:04:06;100331.00;;;-0.40
71081;BMP180;58740;50.672;18.690;2023-02-28T07:06:34;100324.60;;;-0.40
71081;BMP180;58740;50.672;18.690;2023-02-28T07:09:02;100322.00;;;-0.30
71081;BMP180;58740;50.672;18.690;2023-02-28T07:11:31;100320.80;;;-0.20
71081;BMP180;58740;50.672;18.690;2023-02-28T07:14:00;100324.40;;;-0.12
71081;BMP180;58740;50.672;18.690;2023-02-28T07:16:27;100321.60;;;-0.10
71081;BMP180;58740;50.672;18.690;2023-02-28T07:18:55;100321.20;;;-0.12
71081;BMP180;58740;50.672;18.690;2023-02-28T07:21:23;100314.00;;;-0.10
71081;BMP180;58740;50.672;18.690;2023-02-28T07:23:51;100316.40;;;-0.10
71081;BMP180;58740;50.672;18.690;2023-02-28T07:26:20;100315.80;;;0.00
71081;BMP180;58740;50.672;18.690;2023-02-28T07:28:49;100314.40;;;0.00
71081;BMP180;58740;50.672;18.690;2023-02-28T07:31:18;100317.80;;;0.08
71081;BMP180;58740;50.672;18.690;2023-02-28T07:33:46;100319.00;;;0.10
71081;BMP180;58740;50.672;18.690;2023-02-28T07:36:16;100326.00;;;0.20
71081;BMP180;58740;50.672;18.690;2023-02-28T07:38:47;100317.80;;;0.20
71081;BMP180;58740;50.672;18.690;2023-02-28T07:41:20;100317.00;;;0.30
71081;BMP180;58740;50.672;18.690;2023-02-28T07:43:49;100314.80;;;0.34
71081;BMP180;58740;50.672;18.690;2023-02-28T07:46:17;100313.60;;;0.40
71081;BMP180;58740;50.672;18.690;2023-02-28T07:48:46;100312.80;;;0.50
71081;BMP180;58740;50.672;18.690;2023-02-28T07:51:13;100311.80;;;0.54
71081;BMP180;58740;50.672;18.690;2023-02-28T07:53:42;100314.20;;;0.60
71081;BMP180;58740;50.672;18.690;2023-02-28T07:56:10;100313.20;;;0.60
71081;BMP180;58740;50.672;18.690;2023-02-28T07:58:38;100309.80;;;0.70
71081;BMP180;58740;50.672;18.690;2023-02-28T08:01:09;100301.00;;;0.80
71081;BMP180;58740;50.672;18.690;2023-02-28T08:03:38;100307.40;;;0.80
71081;BMP180;58740;50.672;18.690;2023-02-28T08:06:16;100298.40;;;0.86
71081;BMP180;58740;50.672;18.690;2023-02-28T08:08:44;100300.40;;;0.88
71081;BMP180;58740;50.672;18.690;2023-02-28T08:11:12;100300.60;;;0.90
71081;BMP180;58740;50.672;18.690;2023-02-28T08:13:40;100298.00;;;0.90
71081;BMP180;58740;50.672;18.690;2023-02-28T08:16:12;100295.60;;;0.98
71081;BMP180;58740;50.672;18.690;2023-02-28T08:18:51;100297.40;;;1.00
71081;BMP180;58740;50.672;18.690;2023-02-28T08:21:21;100298.40;;;1.04
71081;BMP180;58740;50.672;18.690;2023-02-28T08:23:50;100296.20;;;1.10
71081;BMP180;58740;50.672;18.690;2023-02-28T08:26:19;100300.80;;;1.10
71081;BMP180;58740;50.672;18.690;2023-02-28T08:28:49;100293.60;;;1.18
71081;BMP180;58740;50.672;18.690;2023-02-28T08:31:17;100298.60;;;1.20
71081;BMP180;58740;50.672;18.690;2023-02-28T08:33:45;100309.40;;;1.30
71081;BMP180;58740;50.672;18.690;2023-02-28T08:36:16;100306.80;;;1.30
71081;BMP180;58740;50.672;18.690;2023-02-28T08:38:44;100306.60;;;1.30
71081;BMP180;58740;50.672;18.690;2023-02-28T08:41:13;100302.00;;;1.30
71081;BMP180;58740;50.672;18.690;2023-02-28T08:43:41;100307.00;;;1.30
71081;BMP180;58740;50.672;18.690;2023-02-28T08:46:12;100311.20;;;1.38
71081;BMP180;58740;50.672;18.690;2023-02-28T08:48:41;100304.40;;;1.40
71081;BMP180;58740;50.672;18.690;2023-02-28T08:51:17;100303.80;;;1.40
71081;BMP180;58740;50.672;18.690;2023-02-28T08:53:49;100307.40;;;1.40
71081;BMP180;58740;50.672;18.690;2023-02-28T08:56:18;100304.20;;;1.50
71081;BMP180;58740;50.672;18.690;2023-02-28T08:58:48;100310.20;;;1.50
71081;BMP180;58740;50.672;18.690;2023-02-28T09:01:20;100305.40;;;1.50
71081;BMP180;58740;50.672;18.690;2023-02-28T09:03:51;100306.40;;;1.50
71081;BMP180;58740;50.672;18.690;2023-02-28T09:06:21;100298.00;;;1.60
71081;BMP180;58740;50.672;18.690;2023-02-28T09:08:50;100301.80;;;1.60
71081;BMP180;58740;50.672;18.690;2023-02-28T09:11:19;100296.00;;;1.60
71081;BMP180;58740;50.672;18.690;2023-02-28T09:13:47;100303.00;;;1.60
71081;BMP180;58740;50.672;18.690;2023-02-28T09:16:17;100301.20;;;1.60
71081;BMP180;58740;50.672;18.690;2023-02-28T09:18:45;100301.40;;;1.60
71081;BMP180;58740;50.672;18.690;2023-02-28T09:21:17;100299.20;;;1.60
71081;BMP180;58740;50.672;18.690;2023-02-28T09:23:49;100301.20;;;1.62
71081;BMP180;58740;50.672;18.690;2023-02-28T09:26:27;100302.60;;;1.70
71081;BMP180;58740;50.672;18.690;2023-02-28T09:29:09;100295.00;;;1.70
71081;BMP180;58740;50.672;18.690;2023-02-28T09:31:38;100292.40;;;1.76
71081;BMP180;58740;50.672;18.690;2023-02-28T09:34:06;100295.80;;;1.80
71081;BMP180;58740;50.672;18.690;2023-02-28T09:36:35;100294.00;;;1.80
71081;BMP180;58740;50.672;18.690;2023-02-28T09:39:13;100296.60;;;1.80
71081;BMP180;58740;50.672;18.690;2023-02-28T09:41:47;100295.40;;;1.80
71081;BMP180;58740;50.672;18.690;2023-02-28T09:44:42;100297.60;;;1.74
71081;BMP180;58740;50.672;18.690;2023-02-28T09:47:34;100288.60;;;1.70
71081;BMP180;58740;50.672;18.690;2023-02-28T09:50:28;100290.60;;;1.70
71081;BMP180;58740;50.672;18.690;2023-02-28T09:52:58;100289.40;;;1.70
71081;BMP180;58740;50.672;18.690;2023-02-28T09:55:59;100296.60;;;1.70
71081;BMP180;58740;50.672;18.690;2023-02-28T10:10:58;100293.60;;;1.74
71081;BMP180;58740;50.672;18.690;2023-02-28T10:16:15;100299.00;;;1.80
71081;BMP180;58740;50.672;18.690;2023-02-28T10:18:59;100297.80;;;1.80
71081;BMP180;58740;50.672;18.690;2023-02-28T10:21:42;100298.20;;;1.80
71081;BMP180;58740;50.672;18.690;2023-02-28T10:24:25;100291.40;;;1.88
71081;BMP180;58740;50.672;18.690;2023-02-28T10:27:06;100293.60;;;1.90
71081;BMP180;58740;50.672;18.690;2023-02-28T10:29:41;100292.00;;;1.90
71081;BMP180;58740;50.672;18.690;2023-02-28T10:32:16;100282.80;;;1.90
71081;BMP180;58740;50.672;18.690;2023-02-28T10:34:53;100287.60;;;1.90
71081;BMP180;58740;50.672;18.690;2023-02-28T10:37:23;100291.00;;;1.90
71081;BMP180;58740;50.672;18.690;2023-02-28T10:39:50;100297.40;;;2.00
71081;BMP180;58740;50.672;18.690;2023-02-28T10:42:28;100293.40;;;2.10
71081;BMP180;58740;50.672;18.690;2023-02-28T10:45:15;100291.60;;;2.10
71081;BMP180;58740;50.672;18.690;2023-02-28T10:48:04;100286.20;;;2.10
71081;BMP180;58740;50.672;18.690;2023-02-28T10:56:14;100282.80;;;2.10
71081;BMP180;58740;50.672;18.690;2023-02-28T10:58:57;100286.60;;;2.18
71081;BMP180;58740;50.672;18.690;2023-02-28T11:01:46;100277.40;;;2.20
71081;BMP180;58740;50.672;18.690;2023-02-28T11:07:02;100276.60;;;2.20
71081;BMP180;58740;50.672;18.690;2023-02-28T11:09:38;100276.60;;;2.20
71081;BMP180;58740;50.672;18.690;2023-02-28T11:12:20;100280.00;;;2.20
71081;BMP180;58740;50.672;18.690;2023-02-28T11:14:54;100272.20;;;2.20
71081;BMP180;58740;50.672;18.690;2023-02-28T11:17:27;100265.20;;;2.20
71081;BMP180;58740;50.672;18.690;2023-02-28T11:20:01;100270.00;;;2.20
71081;BMP180;58740;50.672;18.690;2023-02-28T11:22:38;100270.00;;;2.20
71081;BMP180;58740;50.672;18.690;2023-02-28T11:25:23;100264.20;;;2.10
71081;BMP180;58740;50.672;18.690;2023-02-28T11:27:57;100272.40;;;2.10
71081;BMP180;58740;50.672;18.690;2023-02-28T11:30:41;100268.20;;;2.10
71081;BMP180;58740;50.672;18.690;2023-02-28T11:36:27;100260.20;;;2.06
71081;BMP180;58740;50.672;18.690;2023-02-28T11:39:11;100257.40;;;2.00
71081;BMP180;58740;50.672;18.690;2023-02-28T11:47:48;100259.60;;;2.00
71081;BMP180;58740;50.672;18.690;2023-02-28T11:50:34;100253.20;;;2.00
71081;BMP180;58740;50.672;18.690;2023-02-28T11:56:33;100249.40;;;2.00
71081;BMP180;58740;50.672;18.690;2023-02-28T11:59:46;100242.60;;;1.94
71081;BMP180;58740;50.672;18.690;2023-02-28T12:03:04;100244.80;;;2.00
71081;BMP180;58740;50.672;18.690;2023-02-28T12:11:44;100237.40;;;1.98
71081;BMP180;58740;50.672;18.690;2023-02-28T12:17:46;100227.60;;;1.96
71081;BMP180;58740;50.672;18.690;2023-02-28T12:21:11;100226.40;;;2.00
71081;BMP180;58740;50.672;18.690;2023-02-28T12:26:53;100220.00;;;2.00
71081;BMP180;58740;50.672;18.690;2023-02-28T12:29:36;100218.60;;;2.00
71081;BMP180;58740;50.672;18.690;2023-02-28T12:32:26;100215.20;;;2.02
71081;BMP180;58740;50.672;18.690;2023-02-28T12:35:04;100215.00;;;2.10
71081;BMP180;58740;50.672;18.690;2023-02-28T12:37:41;100210.00;;;2.14
71081;BMP180;58740;50.672;18.690;2023-02-28T12:40:17;100207.20;;;2.20
71081;BMP180;58740;50.672;18.690;2023-02-28T12:45:57;100205.60;;;2.30
71081;BMP180;58740;50.672;18.690;2023-02-28T12:48:46;100193.40;;;2.40
71081;BMP180;58740;50.672;18.690;2023-02-28T12:51:17;100193.60;;;2.40
71081;BMP180;58740;50.672;18.690;2023-02-28T12:54:07;100193.20;;;2.50
71081;BMP180;58740;50.672;18.690;2023-02-28T12:59:52;100187.20;;;2.50
71081;BMP180;58740;50.672;18.690;2023-02-28T13:03:27;100186.20;;;2.60
71081;BMP180;58740;50.672;18.690;2023-02-28T13:09:09;100181.40;;;2.66
71081;BMP180;58740;50.672;18.690;2023-02-28T13:11:45;100179.80;;;2.70
71081;BMP180;58740;50.672;18.690;2023-02-28T13:14:36;100187.60;;;2.70
71081;BMP180;58740;50.672;18.690;2023-02-28T13:19:43;100180.00;;;2.74
71081;BMP180;58740;50.672;18.690;2023-02-28T13:22:48;100177.00;;;2.74
71081;BMP180;58740;50.672;18.690;2023-02-28T13:27:53;100178.60;;;2.80
71081;BMP180;58740;50.672;18.690;2023-02-28T13:34:15;100178.60;;;2.70
71081;BMP180;58740;50.672;18.690;2023-02-28T13:38:54;100182.40;;;2.70
71081;BMP180;58740;50.672;18.690;2023-02-28T13:44:24;100171.00;;;2.70
71081;BMP180;58740;50.672;18.690;2023-02-28T13:49:25;100169.60;;;2.70
71081;BMP180;58740;50.672;18.690;2023-02-28T13:55:37;100173.60;;;2.70
71081;BMP180;58740;50.672;18.690;2023-02-28T14:00:54;100175.00;;;2.70
71081;BMP180;58740;50.672;18.690;2023-02-28T14:04:01;100172.80;;;2.70
71081;BMP180;58740;50.672;18.690;2023-02-28T14:06:35;100175.00;;;2.70
71081;BMP180;58740;50.672;18.690;2023-02-28T14:09:39;100181.00;;;2.70
71081;BMP180;58740;50.672;18.690;2023-02-28T14:13:00;100173.40;;;2.70
71081;BMP180;58740;50.672;18.690;2023-02-28T14:15:56;100166.60;;;2.70
71081;BMP180;58740;50.672;18.690;2023-02-28T14:21:09;100171.60;;;2.70
71081;BMP180;58740;50.672;18.690;2023-02-28T14:23:50;100167.60;;;2.70
71081;BMP180;58740;50.672;18.690;2023-02-28T14:30:15;100161.60;;;2.70
71081;BMP180;58740;50.672;18.690;2023-02-28T14:33:35;100161.80;;;2.70
71081;BMP180;58740;50.672;18.690;2023-02-28T14:36:26;100162.20;;;2.70
71081;BMP180;58740;50.672;18.690;2023-02-28T14:39:01;100159.40;;;2.70
71081;BMP180;58740;50.672;18.690;2023-02-28T14:41:39;100158.80;;;2.70
71081;BMP180;58740;50.672;18.690;2023-02-28T14:44:24;100156.40;;;2.70
71081;BMP180;58740;50.672;18.690;2023-02-28T14:46:55;100156.60;;;2.70
71081;BMP180;58740;50.672;18.690;2023-02-28T14:49:36;100150.80;;;2.70
71081;BMP180;58740;50.672;18.690;2023-02-28T14:52:22;100146.80;;;2.70
71081;BMP180;58740;50.672;18.690;2023-02-28T14:55:04;100148.60;;;2.70
71081;BMP180;58740;50.672;18.690;2023-02-28T14:57:39;100146.80;;;2.70
71081;BMP180;58740;50.672;18.690;2023-02-28T15:00:27;100152.20;;;2.70
71081;BMP180;58740;50.672;18.690;2023-02-28T15:02:59;100148.40;;;2.70
71081;BMP180;58740;50.672;18.690;2023-02-28T15:05:34;100145.80;;;2.70
71081;BMP180;58740;50.672;18.690;2023-02-28T15:08:13;100146.20;;;2.70
71081;BMP180;58740;50.672;18.690;2023-02-28T15:10:54;100144.00;;;2.70
71081;BMP180;58740;50.672;18.690;2023-02-28T15:16:04;100142.60;;;2.70
71081;BMP180;58740;50.672;18.690;2023-02-28T15:18:49;100135.60;;;2.70
71081;BMP180;58740;50.672;18.690;2023-02-28T15:21:25;100142.20;;;2.70
71081;BMP180;58740;50.672;18.690;2023-02-28T15:24:10;100136.60;;;2.70
71081;BMP180;58740;50.672;18.690;2023-02-28T15:26:54;100134.00;;;2.70
71081;BMP180;58740;50.672;18.690;2023-02-28T15:29:26;100142.20;;;2.70
71081;BMP180;58740;50.672;18.690;2023-02-28T15:32:05;100135.00;;;2.70
71081;BMP180;58740;50.672;18.690;2023-02-28T15:34:40;100138.20;;;2.70
71081;BMP180;58740;50.672;18.690;2023-02-28T15:37:27;100131.40;;;2.70
71081;BMP180;58740;50.672;18.690;2023-02-28T15:42:39;100128.00;;;2.62
71081;BMP180;58740;50.672;18.690;2023-02-28T15:45:29;100130.20;;;2.60
71081;BMP180;58740;50.672;18.690;2023-02-28T15:47:59;100129.80;;;2.62
71081;BMP180;58740;50.672;18.690;2023-02-28T15:50:41;100128.40;;;2.60
71081;BMP180;58740;50.672;18.690;2023-02-28T15:53:17;100122.00;;;2.60
71081;BMP180;58740;50.672;18.690;2023-02-28T15:55:55;100129.80;;;2.60
71081;BMP180;58740;50.672;18.690;2023-02-28T15:58:26;100133.00;;;2.60
71081;BMP180;58740;50.672;18.690;2023-02-28T16:01:07;100133.20;;;2.54
71081;BMP180;58740;50.672;18.690;2023-02-28T16:03:48;100138.00;;;2.50
71081;BMP180;58740;50.672;18.690;2023-02-28T16:06:32;100135.40;;;2.50
71081;BMP180;58740;50.672;18.690;2023-02-28T16:09:02;100139.60;;;2.46
71081;BMP180;58740;50.672;18.690;2023-02-28T16:11:33;100138.00;;;2.40
71081;BMP180;58740;50.672;18.690;2023-02-28T16:14:02;100135.60;;;2.40
71081;BMP180;58740;50.672;18.690;2023-02-28T16:16:32;100142.60;;;2.38
71081;BMP180;58740;50.672;18.690;2023-02-28T16:19:00;100142.80;;;2.30
71081;BMP180;58740;50.672;18.690;2023-02-28T16:21:28;100143.40;;;2.30
71081;BMP180;58740;50.672;18.690;2023-02-28T16:23:57;100140.40;;;2.26
71081;BMP180;58740;50.672;18.690;2023-02-28T16:26:25;100144.80;;;2.20
71081;BMP180;58740;50.672;18.690;2023-02-28T16:28:55;100146.40;;;2.20
71081;BMP180;58740;50.672;18.690;2023-02-28T16:31:23;100148.00;;;2.20
71081;BMP180;58740;50.672;18.690;2023-02-28T16:33:50;100152.20;;;2.12